createdAt,value
2018-01-08T00:01:08.321Z,0
2018-01-08T00:01:53.397Z,0
2018-01-08T00:03:08.332Z,0
2018-01-08T00:03:53.643Z,0
2018-01-08T00:05:08.100Z,0
2018-01-08T00:06:08.115Z,0
2018-01-08T00:07:53.444Z,0
2018-01-08T00:08:53.709Z,0
2018-01-08T00:10:08.424Z,0
2018-01-08T00:10:53.486Z,0
2018-01-08T00:11:53.770Z,0
2018-01-08T00:13:23.110Z,0
2018-01-08T00:13:53.800Z,0
2018-01-08T00:14:53.800Z,0
2018-01-08T00:16:23.143Z,0
2018-01-08T00:16:53.816Z,0
2018-01-08T00:17:53.855Z,0
2018-01-08T00:18:53.874Z,0
2018-01-08T00:19:53.857Z,0
2018-01-08T00:20:53.886Z,0
2018-01-08T00:21:53.890Z,0
2018-01-08T00:23:08.584Z,0
2018-01-08T00:23:53.944Z,0
2018-01-08T00:24:53.647Z,0
2018-01-08T00:25:53.920Z,0
2018-01-08T00:26:53.934Z,0
2018-01-08T00:27:53.944Z,0
2018-01-08T00:28:54.055Z,0
2018-01-08T00:29:53.985Z,0
2018-01-08T00:31:54.019Z,0
2018-01-08T00:32:53.999Z,0
2018-01-08T00:33:54.060Z,0
2018-01-08T00:36:54.053Z,0
2018-01-08T00:37:54.056Z,0
2018-01-08T00:39:08.749Z,0
2018-01-08T00:39:54.094Z,0
2018-01-08T00:40:54.087Z,0
2018-01-08T00:42:08.288Z,0
2018-01-08T00:42:54.258Z,0
2018-01-08T00:43:53.860Z,0
2018-01-08T00:44:54.182Z,0
2018-01-08T00:46:08.846Z,0
2018-01-08T00:46:54.140Z,0
2018-01-08T00:48:08.933Z,0
2018-01-08T00:48:53.956Z,0
2018-01-08T00:49:54.230Z,0
2018-01-08T00:50:54.210Z,0
2018-01-08T00:51:54.225Z,0
2018-01-08T00:52:54.382Z,0
2018-01-08T00:53:53.998Z,0
2018-01-08T00:54:54.299Z,0
2018-01-08T00:56:23.630Z,0
2018-01-08T00:56:54.266Z,0
2018-01-08T00:58:54.325Z,0
2018-01-08T00:59:54.110Z,0
2018-01-08T01:01:09.023Z,0
2018-01-08T01:02:09.022Z,0
2018-01-08T01:04:09.032Z,0
2018-01-08T01:05:09.057Z,0
2018-01-08T01:05:54.162Z,0
2018-01-08T01:07:09.065Z,0
2018-01-08T01:07:54.159Z,0
2018-01-08T01:08:54.455Z,0
2018-01-08T01:09:54.438Z,0
2018-01-08T01:10:54.482Z,0
2018-01-08T01:11:54.528Z,0
2018-01-08T01:12:54.454Z,0
2018-01-08T01:14:54.492Z,0
2018-01-08T01:16:09.202Z,0
2018-01-08T01:16:54.532Z,0
2018-01-08T01:17:54.626Z,0
2018-01-08T01:18:54.525Z,0
2018-01-08T01:20:08.984Z,0
2018-01-08T01:20:54.562Z,0
2018-01-08T01:22:09.232Z,0
2018-01-08T01:23:09.016Z,0
2018-01-08T01:23:54.602Z,0
2018-01-08T01:25:09.323Z,0
2018-01-08T01:25:54.638Z,0
2018-01-08T01:26:54.637Z,0
2018-01-08T01:27:54.695Z,0
2018-01-08T01:29:09.383Z,0
2018-01-08T01:29:54.645Z,0
2018-01-08T01:31:09.365Z,0
2018-01-08T01:32:09.360Z,0
2018-01-08T01:32:54.716Z,0
2018-01-08T01:34:09.391Z,0
2018-01-08T01:35:09.378Z,0
2018-01-08T01:36:09.440Z,0
2018-01-08T01:36:54.765Z,0
2018-01-08T01:37:54.784Z,0
2018-01-08T01:38:54.770Z,0
2018-01-08T01:40:09.454Z,0
2018-01-08T01:40:54.293Z,0
2018-01-08T01:42:08.962Z,0
2018-01-08T01:42:54.837Z,0
2018-01-08T01:43:54.643Z,0
2018-01-08T01:44:54.822Z,0
2018-01-08T01:45:54.842Z,0
2018-01-08T01:47:09.527Z,0
2018-01-08T01:47:54.641Z,0
2018-01-08T01:48:54.638Z,0
2018-01-08T01:51:09.332Z,0
2018-01-08T01:51:54.930Z,0
2018-01-08T01:52:54.936Z,0
2018-01-08T01:53:54.953Z,0
2018-01-08T01:54:54.935Z,0
2018-01-08T01:55:54.987Z,0
2018-01-08T01:57:09.428Z,0
2018-01-08T01:58:09.675Z,0
2018-01-08T01:58:55.025Z,0
2018-01-08T02:00:09.702Z,0
2018-01-08T02:00:55.039Z,0
2018-01-08T02:01:55.037Z,0
2018-01-08T02:02:55.094Z,0
2018-01-08T02:03:55.080Z,0
2018-01-08T02:05:09.776Z,0
2018-01-08T02:05:55.073Z,0
2018-01-08T02:06:55.102Z,0
2018-01-08T02:07:55.105Z,0
2018-01-08T02:08:55.139Z,0
2018-01-08T02:09:55.161Z,0
2018-01-08T02:10:54.880Z,0
2018-01-08T02:11:55.176Z,0
2018-01-08T02:13:55.179Z,0
2018-01-08T02:15:55.207Z,0
2018-01-08T02:17:09.891Z,0
2018-01-08T02:17:55.229Z,0
2018-01-08T02:19:09.912Z,0
2018-01-08T02:19:55.286Z,0
2018-01-08T02:21:09.965Z,0
2018-01-08T02:21:55.265Z,0
2018-01-08T02:23:09.979Z,0
2018-01-08T02:23:55.277Z,0
2018-01-08T02:24:55.313Z,0
2018-01-08T02:25:55.298Z,0
2018-01-08T02:26:55.322Z,0
2018-01-08T02:27:55.336Z,0
2018-01-08T02:28:55.347Z,0
2018-01-08T02:29:55.394Z,0
2018-01-08T02:30:55.383Z,0
2018-01-08T02:31:55.386Z,0
2018-01-08T02:32:55.448Z,0
2018-01-08T02:33:55.417Z,0
2018-01-08T02:34:55.424Z,0
2018-01-08T02:35:55.455Z,0
2018-01-08T02:36:55.444Z,0
2018-01-08T02:38:10.137Z,0
2018-01-08T02:39:10.187Z,0
2018-01-08T02:39:55.514Z,0
2018-01-08T02:40:54.982Z,0
2018-01-08T02:41:55.262Z,0
2018-01-08T02:42:55.272Z,0
2018-01-08T02:43:55.268Z,0
2018-01-08T02:44:55.295Z,0
2018-01-08T02:46:09.988Z,0
2018-01-08T02:47:10.227Z,0
2018-01-08T02:47:55.327Z,0
2018-01-08T02:48:55.565Z,0
2018-01-08T02:49:55.639Z,0
2018-01-08T02:50:55.665Z,0
2018-01-08T02:51:55.609Z,0
2018-01-08T02:52:55.674Z,0
2018-01-08T02:53:55.713Z,0
2018-01-08T02:55:10.062Z,0
2018-01-08T02:55:55.669Z,0
2018-01-08T02:56:55.670Z,0
2018-01-08T02:57:55.709Z,0
2018-01-08T02:58:55.793Z,0
2018-01-08T02:59:55.725Z,0
2018-01-08T03:00:55.719Z,0
2018-01-08T03:01:55.758Z,0
2018-01-08T03:02:55.765Z,0
2018-01-08T03:04:10.160Z,0
2018-01-08T03:04:55.759Z,0
2018-01-08T03:05:55.818Z,0
2018-01-08T03:06:55.803Z,0
2018-01-08T03:07:55.805Z,0
2018-01-08T03:08:55.816Z,0
2018-01-08T03:09:55.828Z,0
2018-01-08T03:11:10.519Z,0
2018-01-08T03:11:55.841Z,0
2018-01-08T03:13:55.898Z,0
2018-01-08T03:14:55.887Z,0
2018-01-08T03:15:55.908Z,0
2018-01-08T03:16:55.896Z,0
2018-01-08T03:17:55.906Z,0
2018-01-08T03:18:55.915Z,0
2018-01-08T03:19:55.943Z,0
2018-01-08T03:20:55.973Z,0
2018-01-08T03:21:55.963Z,0
2018-01-08T03:22:55.981Z,0
2018-01-08T03:23:55.741Z,0
2018-01-08T03:25:10.669Z,0
2018-01-08T03:26:10.721Z,0
2018-01-08T03:26:56.004Z,0
2018-01-08T03:27:56.072Z,0
2018-01-08T03:28:56.041Z,0
2018-01-08T03:29:56.050Z,0
2018-01-08T03:30:56.055Z,0
2018-01-08T03:31:56.087Z,0
2018-01-08T03:33:10.751Z,0
2018-01-08T03:34:10.778Z,0
2018-01-08T03:34:56.106Z,0
2018-01-08T03:35:55.880Z,0
2018-01-08T03:36:56.157Z,0
2018-01-08T03:37:56.144Z,0
2018-01-08T03:40:10.865Z,0
2018-01-08T03:40:56.173Z,0
2018-01-08T03:41:55.937Z,0
2018-01-08T03:42:56.232Z,0
2018-01-08T03:43:55.986Z,0
2018-01-08T03:44:55.980Z,0
2018-01-08T03:45:56.248Z,0
2018-01-08T03:46:56.013Z,0
2018-01-08T03:47:56.282Z,0
2018-01-08T03:49:10.961Z,0
2018-01-08T03:49:56.056Z,0
2018-01-08T03:50:56.292Z,0
2018-01-08T03:51:56.316Z,0
2018-01-08T03:53:10.998Z,0
2018-01-08T03:53:56.365Z,0
2018-01-08T03:54:56.353Z,0
2018-01-08T03:56:10.747Z,0
2018-01-08T03:56:56.351Z,0
2018-01-08T03:58:11.026Z,0
2018-01-08T03:58:56.388Z,0
2018-01-08T03:59:56.419Z,0
2018-01-08T04:00:56.156Z,0
2018-01-08T04:02:10.819Z,0
2018-01-08T04:03:11.109Z,0
2018-01-08T04:03:56.444Z,0
2018-01-08T04:04:56.463Z,0
2018-01-08T04:05:56.501Z,0
2018-01-08T04:07:11.142Z,0
2018-01-08T04:08:56.464Z,0
2018-01-08T04:10:11.167Z,0
2018-01-08T04:11:11.214Z,0
2018-01-08T04:12:11.185Z,0
2018-01-08T04:13:11.235Z,0
2018-01-08T04:14:25.637Z,0
2018-01-08T04:14:56.581Z,0
2018-01-08T04:15:56.632Z,0
2018-01-08T04:16:56.612Z,0
2018-01-08T04:17:56.581Z,0
2018-01-08T04:18:56.611Z,0
2018-01-08T04:19:56.632Z,0
2018-01-08T04:20:56.643Z,0
2018-01-08T04:22:11.313Z,0
2018-01-08T04:22:56.412Z,0
2018-01-08T04:23:56.662Z,0
2018-01-08T04:24:56.729Z,0
2018-01-08T04:25:56.691Z,0
2018-01-08T04:26:56.729Z,0
2018-01-08T04:27:56.841Z,0
2018-01-08T04:28:56.458Z,0
2018-01-08T04:30:11.394Z,0
2018-01-08T04:31:11.459Z,0
2018-01-08T04:31:56.765Z,0
2018-01-08T04:32:56.538Z,0
2018-01-08T04:33:56.777Z,0
2018-01-08T04:34:56.819Z,0
2018-01-08T04:35:56.546Z,0
2018-01-08T04:36:56.785Z,0
2018-01-08T04:37:56.809Z,0
2018-01-08T04:38:56.553Z,0
2018-01-08T04:40:11.523Z,0
2018-01-08T04:40:56.829Z,0
2018-01-08T04:41:56.649Z,0
2018-01-08T04:43:11.541Z,0
2018-01-08T04:44:11.592Z,0
2018-01-08T04:44:56.892Z,0
2018-01-08T04:46:11.589Z,0
2018-01-08T04:47:56.964Z,0
2018-01-08T04:48:56.449Z,0
2018-01-08T04:49:56.734Z,0
2018-01-08T04:50:56.956Z,0
2018-01-08T04:51:57.016Z,0
2018-01-08T04:52:57.094Z,0
2018-01-08T04:53:56.979Z,0
2018-01-08T04:54:57.025Z,0
2018-01-08T04:56:57.027Z,0
2018-01-08T04:57:57.083Z,0
2018-01-08T04:58:57.129Z,0
2018-01-08T04:59:57.060Z,0
2018-01-08T05:01:11.813Z,0
2018-01-08T05:01:57.089Z,0
2018-01-08T05:02:57.093Z,0
2018-01-08T05:03:57.154Z,0
2018-01-08T05:05:11.544Z,0
2018-01-08T05:05:57.150Z,0
2018-01-08T05:06:57.126Z,0
2018-01-08T05:07:57.222Z,0
2018-01-08T05:08:57.146Z,0
2018-01-08T05:10:11.870Z,0
2018-01-08T05:10:57.202Z,0
2018-01-08T05:11:57.176Z,0
2018-01-08T05:13:56.958Z,0
2018-01-08T05:14:57.225Z,0
2018-01-08T05:15:57.284Z,0
2018-01-08T05:16:56.978Z,0
2018-01-08T05:18:11.942Z,0
2018-01-08T05:18:57.021Z,0
2018-01-08T05:19:57.309Z,0
2018-01-08T05:20:57.353Z,0
2018-01-08T05:21:57.055Z,0
2018-01-08T05:22:57.053Z,0
2018-01-08T05:23:57.373Z,0
2018-01-08T05:25:11.772Z,0
2018-01-08T05:25:57.375Z,0
2018-01-08T05:26:57.111Z,0
2018-01-08T05:27:57.382Z,0
2018-01-08T05:28:57.361Z,0
2018-01-08T05:29:57.398Z,0
2018-01-08T05:30:57.211Z,0
2018-01-08T05:31:57.444Z,0
2018-01-08T05:33:12.133Z,0
2018-01-08T05:33:57.436Z,0
2018-01-08T05:34:57.260Z,0
2018-01-08T05:35:57.500Z,0
2018-01-08T05:36:57.477Z,0
2018-01-08T05:37:57.465Z,0
2018-01-08T05:38:57.509Z,0
2018-01-08T05:40:11.917Z,0
2018-01-08T05:40:57.515Z,0
2018-01-08T05:42:11.953Z,0
2018-01-08T05:43:11.959Z,0
2018-01-08T05:43:57.550Z,0
2018-01-08T05:44:57.312Z,0
2018-01-08T05:46:12.269Z,0
2018-01-08T05:47:26.933Z,0
2018-01-08T05:49:12.282Z,0
2018-01-08T05:49:57.709Z,0
2018-01-08T05:50:57.618Z,0
2018-01-08T05:51:57.141Z,0
2018-01-08T05:52:57.399Z,0
2018-01-08T05:53:57.661Z,0
2018-01-08T05:54:57.469Z,0
2018-01-08T05:55:57.449Z,0
2018-01-08T05:56:57.727Z,0
2018-01-08T05:57:57.717Z,0
2018-01-08T05:58:57.729Z,0
2018-01-08T05:59:57.526Z,0
2018-01-08T06:00:57.721Z,0
2018-01-08T06:01:57.811Z,0
2018-01-08T06:03:57.758Z,0
2018-01-08T06:05:12.456Z,0
2018-01-08T06:05:57.520Z,0
2018-01-08T06:07:12.474Z,0
2018-01-08T06:07:57.862Z,0
2018-01-08T06:09:12.494Z,0
2018-01-08T06:09:57.880Z,0
2018-01-08T06:10:57.914Z,0
2018-01-08T06:11:57.849Z,0
2018-01-08T06:12:57.914Z,0
2018-01-08T06:13:57.861Z,0
2018-01-08T06:15:12.565Z,0
2018-01-08T06:15:57.876Z,0
2018-01-08T06:16:57.904Z,0
2018-01-08T06:18:12.626Z,0
2018-01-08T06:18:57.928Z,0
2018-01-08T06:19:57.960Z,0
2018-01-08T06:21:12.414Z,0
2018-01-08T06:22:58.012Z,0
2018-01-08T06:23:58.043Z,0
2018-01-08T06:24:58.005Z,0
2018-01-08T06:26:57.999Z,0
2018-01-08T06:27:58.015Z,0
2018-01-08T06:29:58.048Z,0
2018-01-08T06:30:58.077Z,0
2018-01-08T06:31:58.104Z,0
2018-01-08T06:32:58.227Z,0
2018-01-08T06:33:58.107Z,0
2018-01-08T06:34:57.938Z,0
2018-01-08T06:36:12.523Z,0
2018-01-08T06:36:58.204Z,0
2018-01-08T06:37:58.137Z,0
2018-01-08T06:39:12.811Z,0
2018-01-08T06:39:57.933Z,0
2018-01-08T06:40:58.171Z,0
2018-01-08T06:41:57.696Z,0
2018-01-08T06:42:58.212Z,0
2018-01-08T06:43:58.203Z,0
2018-01-08T06:44:57.965Z,0
2018-01-08T06:46:58.224Z,0
2018-01-08T06:47:58.344Z,0
2018-01-08T06:48:58.257Z,0
2018-01-08T06:49:58.280Z,0
2018-01-08T06:50:58.296Z,0
2018-01-08T06:52:58.343Z,0
2018-01-08T06:53:58.404Z,0
2018-01-08T06:54:58.376Z,0
2018-01-08T06:55:58.345Z,0
2018-01-08T06:56:58.352Z,0
2018-01-08T06:58:58.131Z,0
2018-01-08T06:59:58.398Z,0
2018-01-08T07:00:58.436Z,0
2018-01-08T07:01:58.415Z,0
2018-01-08T07:02:58.152Z,0
2018-01-08T07:03:58.445Z,0
2018-01-08T07:04:58.422Z,0
2018-01-08T07:06:12.862Z,0
2018-01-08T07:06:58.460Z,0
2018-01-08T07:08:13.131Z,0
2018-01-08T07:08:58.586Z,5
2018-01-08T07:09:58.510Z,5
2018-01-08T07:11:13.171Z,5
2018-01-08T07:11:58.523Z,5
2018-01-08T07:12:58.506Z,5
2018-01-08T07:13:58.550Z,5
2018-01-08T07:14:58.539Z,5
2018-01-08T07:16:13.250Z,5
2018-01-08T07:16:58.320Z,5
2018-01-08T07:17:58.560Z,5
2018-01-08T07:19:13.245Z,5
2018-01-08T07:20:13.004Z,5
2018-01-08T07:20:58.341Z,5
2018-01-08T07:22:13.289Z,10
2018-01-08T07:23:13.030Z,10
2018-01-08T07:24:13.323Z,10
2018-01-08T07:24:58.637Z,10
2018-01-08T07:25:58.676Z,10
2018-01-08T07:26:58.668Z,10
2018-01-08T07:28:13.363Z,10
2018-01-08T07:28:58.711Z,10
2018-01-08T07:29:58.524Z,10
2018-01-08T07:30:58.738Z,10
2018-01-08T07:31:58.763Z,15
2018-01-08T07:32:58.881Z,15
2018-01-08T07:33:58.724Z,15
2018-01-08T07:34:58.781Z,15
2018-01-08T07:35:58.773Z,15
2018-01-08T07:36:58.804Z,15
2018-01-08T07:37:58.831Z,15
2018-01-08T07:38:58.572Z,15
2018-01-08T07:40:13.478Z,15
2018-01-08T07:40:58.820Z,15
2018-01-08T07:41:58.585Z,20
2018-01-08T07:42:58.901Z,20
2018-01-08T07:43:58.875Z,20
2018-01-08T07:44:58.844Z,20
2018-01-08T07:45:58.870Z,20
2018-01-08T07:46:58.880Z,20
2018-01-08T07:47:58.904Z,20
2018-01-08T07:48:58.924Z,25
2018-01-08T07:49:58.942Z,25
2018-01-08T07:51:13.608Z,25
2018-01-08T07:52:13.600Z,25
2018-01-08T07:53:58.973Z,25
2018-01-08T07:54:59.022Z,25
2018-01-08T07:56:13.680Z,30
2018-01-08T07:56:58.982Z,30
2018-01-08T07:58:58.991Z,30
2018-01-08T07:59:59.093Z,30
2018-01-08T08:00:59.082Z,30
2018-01-08T08:02:13.723Z,35
2018-01-08T08:02:59.085Z,35
2018-01-08T08:03:59.123Z,35
2018-01-08T08:04:58.854Z,35
2018-01-08T08:05:59.145Z,35
2018-01-08T08:06:59.104Z,40
2018-01-08T08:09:13.786Z,40
2018-01-08T08:09:59.161Z,40
2018-01-08T08:11:59.165Z,40
2018-01-08T08:12:59.287Z,40
2018-01-08T08:13:59.226Z,40
2018-01-08T08:14:59.207Z,40
2018-01-08T08:15:59.215Z,40
2018-01-08T08:16:59.000Z,40
2018-01-08T08:18:13.921Z,40
2018-01-08T08:18:59.259Z,40
2018-01-08T08:19:59.250Z,40
2018-01-08T08:21:13.956Z,40
2018-01-08T08:21:59.271Z,40
2018-01-08T08:24:13.969Z,40
2018-01-08T08:24:59.320Z,40
2018-01-08T08:25:59.086Z,45
2018-01-08T08:27:13.996Z,45
2018-01-08T08:28:14.039Z,45
2018-01-08T08:29:59.395Z,45
2018-01-08T08:30:59.391Z,45
2018-01-08T08:31:59.360Z,45
2018-01-08T08:32:59.458Z,45
2018-01-08T08:33:59.165Z,50
2018-01-08T08:34:59.427Z,50
2018-01-08T08:36:13.872Z,50
2018-01-08T08:37:14.115Z,50
2018-01-08T08:38:59.186Z,50
2018-01-08T08:39:59.459Z,50
2018-01-08T08:40:59.505Z,50
2018-01-08T08:41:59.246Z,50
2018-01-08T08:43:13.953Z,50
2018-01-08T08:43:59.543Z,50
2018-01-08T08:44:59.558Z,50
2018-01-08T08:45:59.548Z,60
2018-01-08T08:46:59.589Z,60
2018-01-08T08:47:59.583Z,55
2018-01-08T08:48:59.331Z,55
2018-01-08T08:49:59.603Z,60
2018-01-08T08:51:14.056Z,65
2018-01-08T08:52:14.046Z,70
2018-01-08T08:52:59.373Z,75
2018-01-08T08:53:59.398Z,80
2018-01-08T08:54:59.611Z,80
2018-01-08T08:56:14.350Z,80
2018-01-08T08:56:59.636Z,80
2018-01-08T08:57:59.419Z,80
2018-01-08T08:59:13.854Z,80
2018-01-08T09:00:14.376Z,80
2018-01-08T09:00:59.479Z,80
2018-01-08T09:01:59.484Z,75
2018-01-08T09:02:59.780Z,80
2018-01-08T09:03:59.506Z,80
2018-01-08T09:04:59.749Z,80
2018-01-08T09:05:59.758Z,80
2018-01-08T09:06:59.773Z,80
2018-01-08T09:07:59.789Z,80
2018-01-08T09:09:14.204Z,80
2018-01-08T09:09:59.808Z,80
2018-01-08T09:10:59.300Z,80
2018-01-08T09:11:59.610Z,80
2018-01-08T09:12:59.610Z,80
2018-01-08T09:13:59.866Z,80
2018-01-08T09:15:14.560Z,80
2018-01-08T09:15:59.858Z,80
2018-01-08T09:16:59.917Z,75
2018-01-08T09:18:14.553Z,75
2018-01-08T09:18:59.931Z,75
2018-01-08T09:19:59.911Z,75
2018-01-08T09:20:59.657Z,75
2018-01-08T09:21:59.678Z,75
2018-01-08T09:22:59.951Z,75
2018-01-08T09:23:59.706Z,75
2018-01-08T09:24:59.726Z,75
2018-01-08T09:25:59.993Z,80
2018-01-08T09:27:00.052Z,80
2018-01-08T09:27:59.780Z,80
2018-01-08T09:28:59.903Z,80
2018-01-08T09:30:00.062Z,75
2018-01-08T09:31:14.495Z,75
2018-01-08T09:32:14.527Z,75
2018-01-08T09:33:00.058Z,75
2018-01-08T09:34:00.112Z,75
2018-01-08T09:35:00.121Z,75
2018-01-08T09:36:00.191Z,75
2018-01-08T09:37:14.798Z,75
2018-01-08T09:38:00.150Z,75
2018-01-08T09:38:59.965Z,75
2018-01-08T09:40:00.157Z,75
2018-01-08T09:40:59.939Z,75
2018-01-08T09:42:00.212Z,75
2018-01-08T09:43:00.202Z,75
2018-01-08T09:44:14.879Z,75
2018-01-08T09:45:00.241Z,75
2018-01-08T09:46:29.568Z,75
2018-01-08T09:47:00.245Z,75
2018-01-08T09:48:00.253Z,75
2018-01-08T09:49:14.942Z,75
2018-01-08T09:50:00.288Z,75
2018-01-08T09:51:15.017Z,75
2018-01-08T09:52:00.064Z,75
2018-01-08T09:54:00.076Z,75
2018-01-08T09:55:00.520Z,75
2018-01-08T09:56:00.337Z,75
2018-01-08T09:57:00.358Z,75
2018-01-08T09:58:00.403Z,75
2018-01-08T09:59:00.386Z,75
2018-01-08T10:00:00.188Z,75
2018-01-08T10:01:00.516Z,75
2018-01-08T10:02:00.455Z,75
2018-01-08T10:03:00.186Z,75
2018-01-08T10:04:00.419Z,75
2018-01-08T10:05:00.464Z,75
2018-01-08T10:06:00.501Z,75
2018-01-08T10:07:00.492Z,75
2018-01-08T10:08:14.918Z,75
2018-01-08T10:09:00.503Z,80
2018-01-08T10:10:00.504Z,80
2018-01-08T10:11:00.516Z,75
2018-01-08T10:12:00.576Z,75
2018-01-08T10:13:00.572Z,75
2018-01-08T10:14:00.566Z,75
2018-01-08T10:15:15.286Z,75
2018-01-08T10:16:00.592Z,75
2018-01-08T10:18:15.274Z,75
2018-01-08T10:19:00.119Z,75
2018-01-08T10:20:00.659Z,70
2018-01-08T10:21:00.655Z,70
2018-01-08T10:22:15.338Z,70
2018-01-08T10:23:00.731Z,70
2018-01-08T10:24:00.691Z,70
2018-01-08T10:25:15.135Z,70
2018-01-08T10:26:00.745Z,70
2018-01-08T10:28:15.439Z,70
2018-01-08T10:29:00.749Z,70
2018-01-08T10:30:00.509Z,70
2018-01-08T10:31:00.787Z,70
2018-01-08T10:32:00.801Z,70
2018-01-08T10:34:15.479Z,70
2018-01-08T10:35:14.983Z,70
2018-01-08T10:36:00.827Z,70
2018-01-08T10:38:00.889Z,70
2018-01-08T10:39:00.873Z,70
2018-01-08T10:40:00.658Z,70
2018-01-08T10:41:00.892Z,70
2018-01-08T10:42:00.665Z,70
2018-01-08T10:43:00.988Z,70
2018-01-08T10:45:00.933Z,70
2018-01-08T10:46:00.987Z,70
2018-01-08T10:47:15.634Z,70
2018-01-08T10:48:00.968Z,70
2018-01-08T10:49:00.862Z,70
2018-01-08T10:50:15.712Z,70
2018-01-08T10:51:00.542Z,70
2018-01-08T10:53:01.056Z,70
2018-01-08T10:54:01.043Z,70
2018-01-08T10:55:00.588Z,70
2018-01-08T10:56:15.785Z,70
2018-01-08T10:57:00.872Z,70
2018-01-08T10:59:01.162Z,75
2018-01-08T11:00:01.170Z,75
2018-01-08T11:01:15.811Z,75
2018-01-08T11:02:15.877Z,75
2018-01-08T11:03:01.206Z,75
2018-01-08T11:04:01.174Z,75
2018-01-08T11:05:00.974Z,75
2018-01-08T11:06:15.670Z,75
2018-01-08T11:07:01.250Z,75
2018-01-08T11:08:01.277Z,75
2018-01-08T11:09:01.301Z,75
2018-01-08T11:10:01.308Z,75
2018-01-08T11:11:01.283Z,75
2018-01-08T11:12:15.700Z,75
2018-01-08T11:13:01.314Z,75
2018-01-08T11:14:01.334Z,75
2018-01-08T11:15:15.999Z,75
2018-01-08T11:16:16.036Z,75
2018-01-08T11:17:16.111Z,75
2018-01-08T11:18:01.377Z,75
2018-01-08T11:19:01.411Z,75
2018-01-08T11:20:01.416Z,75
2018-01-08T11:21:16.150Z,75
2018-01-08T11:22:01.428Z,75
2018-01-08T11:23:01.229Z,75
2018-01-08T11:24:01.588Z,75
2018-01-08T11:25:01.485Z,75
2018-01-08T11:26:01.231Z,75
2018-01-08T11:27:01.531Z,75
2018-01-08T11:28:16.183Z,75
2018-01-08T11:29:01.529Z,75
2018-01-08T11:30:01.524Z,75
2018-01-08T11:31:01.549Z,80
2018-01-08T11:32:01.528Z,80
2018-01-08T11:33:01.610Z,80
2018-01-08T11:34:01.571Z,80
2018-01-08T11:35:01.601Z,80
2018-01-08T11:36:01.623Z,80
2018-01-08T11:37:01.633Z,80
2018-01-08T11:38:01.162Z,80
2018-01-08T11:39:01.403Z,80
2018-01-08T11:40:01.395Z,80
2018-01-08T11:41:01.420Z,80
2018-01-08T11:42:01.443Z,80
2018-01-08T11:43:01.429Z,80
2018-01-08T11:44:16.398Z,80
2018-01-08T11:45:01.725Z,80
2018-01-08T11:46:01.228Z,80
2018-01-08T11:48:16.444Z,80
2018-01-08T11:49:01.819Z,80
2018-01-08T11:51:16.342Z,80
2018-01-08T11:52:01.839Z,80
2018-01-08T11:53:16.552Z,80
2018-01-08T11:55:01.610Z,80
2018-01-08T11:56:01.875Z,80
2018-01-08T11:57:16.561Z,80
2018-01-08T11:58:01.686Z,80
2018-01-08T11:59:16.689Z,80
2018-01-08T12:00:01.681Z,80
2018-01-08T12:01:16.368Z,80
2018-01-08T12:02:01.972Z,80
2018-01-08T12:03:01.958Z,80
2018-01-08T12:04:16.656Z,75
2018-01-08T12:05:16.409Z,75
2018-01-08T12:06:01.981Z,75
2018-01-08T12:07:01.888Z,75
2018-01-08T12:08:02.033Z,75
2018-01-08T12:09:16.740Z,80
2018-01-08T12:10:01.818Z,80
2018-01-08T12:11:01.567Z,80
2018-01-08T12:12:02.110Z,80
2018-01-08T12:14:02.133Z,80
2018-01-08T12:15:02.154Z,80
2018-01-08T12:16:02.150Z,80
2018-01-08T12:17:16.811Z,80
2018-01-08T12:18:02.163Z,80
2018-01-08T12:19:16.850Z,80
2018-01-08T12:20:02.213Z,80
2018-01-08T12:21:01.929Z,80
2018-01-08T12:22:02.240Z,80
2018-01-08T12:23:02.219Z,80
2018-01-08T12:24:02.003Z,80
2018-01-08T12:25:16.941Z,80
2018-01-08T12:26:02.300Z,80
2018-01-08T12:27:02.266Z,80
2018-01-08T12:28:02.301Z,80
2018-01-08T12:29:02.347Z,80
2018-01-08T12:30:02.075Z,80
2018-01-08T12:31:02.096Z,80
2018-01-08T12:32:02.083Z,80
2018-01-08T12:33:02.119Z,80
2018-01-08T12:34:02.408Z,80
2018-01-08T12:35:02.425Z,80
2018-01-08T12:36:02.396Z,80
2018-01-08T12:37:02.411Z,80
2018-01-08T12:38:02.452Z,80
2018-01-08T12:39:02.192Z,80
2018-01-08T12:40:01.975Z,80
2018-01-08T12:41:17.142Z,80
2018-01-08T12:42:01.994Z,80
2018-01-08T12:44:02.504Z,80
2018-01-08T12:45:02.514Z,80
2018-01-08T12:46:02.525Z,80
2018-01-08T12:47:02.569Z,80
2018-01-08T12:48:17.249Z,80
2018-01-08T12:49:17.263Z,80
2018-01-08T12:50:02.741Z,80
2018-01-08T12:52:17.375Z,80
2018-01-08T12:53:02.734Z,80
2018-01-08T12:54:17.341Z,80
2018-01-08T12:55:02.442Z,80
2018-01-08T12:56:17.366Z,80
2018-01-08T12:57:02.766Z,80
2018-01-08T12:58:02.197Z,80
2018-01-08T12:59:02.729Z,80
2018-01-08T13:00:02.711Z,80
2018-01-08T13:01:02.739Z,80
2018-01-08T13:02:02.788Z,80
2018-01-08T13:03:02.787Z,80
2018-01-08T13:04:02.846Z,80
2018-01-08T13:05:02.811Z,80
2018-01-08T13:06:02.036Z,80
2018-01-08T13:07:02.595Z,75
2018-01-08T13:08:02.602Z,75
2018-01-08T13:09:17.514Z,75
2018-01-08T13:10:02.606Z,75
2018-01-08T13:11:02.616Z,75
2018-01-08T13:12:02.952Z,75
2018-01-08T13:13:02.916Z,75
2018-01-08T13:14:02.909Z,75
2018-01-08T13:15:02.906Z,75
2018-01-08T13:16:02.928Z,75
2018-01-08T13:17:17.660Z,75
2018-01-08T13:18:02.730Z,75
2018-01-08T13:19:02.707Z,75
2018-01-08T13:20:03.018Z,75
2018-01-08T13:21:03.054Z,75
2018-01-08T13:22:03.030Z,75
2018-01-08T13:23:17.473Z,75
2018-01-08T13:24:17.724Z,75
2018-01-08T13:25:02.797Z,70
2018-01-08T13:26:03.056Z,70
2018-01-08T13:27:17.761Z,70
2018-01-08T13:28:17.511Z,70
2018-01-08T13:30:03.132Z,70
2018-01-08T13:31:03.145Z,70
2018-01-08T13:32:02.903Z,70
2018-01-08T13:33:03.236Z,70
2018-01-08T13:34:03.174Z,70
2018-01-08T13:35:03.195Z,70
2018-01-08T13:36:17.866Z,65
2018-01-08T13:37:02.963Z,65
2018-01-08T13:38:17.672Z,60
2018-01-08T13:39:03.247Z,60
2018-01-08T13:40:17.443Z,55
2018-01-08T13:41:03.032Z,55
2018-01-08T13:42:03.332Z,55
2018-01-08T13:43:17.967Z,50
2018-01-08T13:44:17.980Z,50
2018-01-08T13:45:17.496Z,45
2018-01-08T13:46:03.121Z,45
2018-01-08T13:47:18.055Z,45
2018-01-08T13:48:18.053Z,45
2018-01-08T13:49:03.446Z,45
2018-01-08T13:50:02.899Z,45
2018-01-08T13:51:03.393Z,45
2018-01-08T13:52:18.122Z,45
2018-01-08T13:53:03.533Z,45
2018-01-08T13:54:03.472Z,45
2018-01-08T13:55:03.512Z,45
2018-01-08T13:56:03.479Z,45
2018-01-08T13:57:03.490Z,45
2018-01-08T13:58:03.495Z,40
2018-01-08T13:59:03.045Z,45
2018-01-08T14:00:17.957Z,40
2018-01-08T14:01:03.042Z,40
2018-01-08T14:02:03.342Z,40
2018-01-08T14:03:03.336Z,35
2018-01-08T14:04:03.348Z,35
2018-01-08T14:05:03.645Z,35
2018-01-08T14:06:18.284Z,30
2018-01-08T14:07:03.383Z,30
2018-01-08T14:08:18.337Z,30
2018-01-08T14:09:03.388Z,30
2018-01-08T14:10:18.342Z,30
2018-01-08T14:11:03.678Z,25
2018-01-08T14:12:03.809Z,25
2018-01-08T14:13:03.719Z,25
2018-01-08T14:14:03.495Z,25
2018-01-08T14:16:18.155Z,25
2018-01-08T14:17:03.789Z,25
2018-01-08T14:18:18.418Z,25
2018-01-08T14:19:18.432Z,25
2018-01-08T14:20:03.786Z,25
2018-01-08T14:21:03.809Z,20
2018-01-08T14:22:03.595Z,20
2018-01-08T14:23:03.603Z,20
2018-01-08T14:24:03.581Z,20
2018-01-08T14:25:18.509Z,20
2018-01-08T14:26:03.908Z,20
2018-01-08T14:27:03.906Z,20
2018-01-08T14:28:03.892Z,20
2018-01-08T14:29:03.959Z,20
2018-01-08T14:30:18.325Z,20
2018-01-08T14:31:18.635Z,20
2018-01-08T14:32:03.981Z,20
2018-01-08T14:33:18.683Z,20
2018-01-08T14:34:03.995Z,15
2018-01-08T14:35:18.636Z,15
2018-01-08T14:36:18.407Z,15
2018-01-08T14:37:04.046Z,15
2018-01-08T14:39:18.714Z,15
2018-01-08T14:40:03.776Z,15
2018-01-08T14:41:18.745Z,15
2018-01-08T14:42:04.077Z,15
2018-01-08T14:43:03.834Z,15
2018-01-08T14:44:04.170Z,15
2018-01-08T14:45:04.113Z,10
2018-01-08T14:46:04.147Z,10
2018-01-08T14:47:04.143Z,10
2018-01-08T14:48:04.281Z,10
2018-01-08T14:49:03.907Z,10
2018-01-08T14:50:04.178Z,10
2018-01-08T14:51:03.664Z,10
2018-01-08T14:52:03.703Z,10
2018-01-08T14:53:04.211Z,10
2018-01-08T14:54:19.011Z,10
2018-01-08T14:55:03.998Z,10
2018-01-08T14:57:04.393Z,5
2018-01-08T14:58:04.302Z,5
2018-01-08T14:59:04.323Z,5
2018-01-08T15:00:04.290Z,5
2018-01-08T15:01:18.743Z,5
2018-01-08T15:02:04.357Z,5
2018-01-08T15:03:18.789Z,5
2018-01-08T15:04:04.389Z,5
2018-01-08T15:05:04.389Z,5
2018-01-08T15:06:03.905Z,5
2018-01-08T15:07:04.432Z,5
2018-01-08T15:09:04.185Z,0
2018-01-08T15:10:04.217Z,0
2018-01-08T15:11:04.482Z,0
2018-01-08T15:12:04.219Z,0
2018-01-08T15:13:03.943Z,0
2018-01-08T15:14:04.246Z,0
2018-01-08T15:15:04.494Z,0
2018-01-08T15:16:04.536Z,0
2018-01-08T15:18:04.544Z,0
2018-01-08T15:19:18.950Z,0
2018-01-08T15:20:04.680Z,0
2018-01-08T15:21:04.321Z,0
2018-01-08T15:22:04.579Z,0
2018-01-08T15:23:04.583Z,0